createdAt,value
2022-08-08T13:04:24.961Z,100813.22
2022-08-08T13:07:02.975Z,100823.78
2022-08-08T13:10:04.369Z,100833.47
2022-08-08T13:12:46.651Z,100846.34
2022-08-08T13:15:19.596Z,100844.44
2022-08-08T13:17:53.907Z,100853.50
2022-08-08T13:20:49.255Z,100857.19
2022-08-08T13:23:31.394Z,100863.28
2022-08-08T13:26:14.728Z,100881.69
2022-08-08T13:28:48.860Z,100886.38
2022-08-08T13:31:19.707Z,100888.03
2022-08-08T13:33:54.433Z,100881.06
2022-08-08T13:36:26.116Z,100897.59
2022-08-08T13:39:00.374Z,100899.00
2022-08-08T13:41:37.882Z,100890.84
2022-08-08T13:44:19.623Z,100889.19
2022-08-08T13:47:03.687Z,100901.84
2022-08-08T13:50:34.686Z,100907.66
2022-08-08T13:52:37.879Z,100902.00
2022-08-08T13:55:09.263Z,100908.09
2022-08-08T13:58:07.785Z,100912.31
2022-08-08T14:00:45.244Z,100923.50
2022-08-08T14:03:52.462Z,100911.22
2022-08-08T14:06:33.144Z,100915.63
2022-08-08T14:09:24.797Z,100914.06
2022-08-08T14:11:55.117Z,100906.56
2022-08-08T14:14:26.344Z,100912.78
2022-08-08T14:17:00.600Z,100908.72
2022-08-08T14:19:57.348Z,100912.31
2022-08-08T14:22:30.169Z,100909.06
2022-08-08T14:25:07.728Z,100914.09
2022-08-08T14:27:59.670Z,100911.19
2022-08-08T14:30:37.190Z,100917.34
2022-08-08T14:33:12.901Z,100919.56
2022-08-08T14:35:49.645Z,100920.44
2022-08-08T14:38:51.547Z,100918.44
2022-08-08T14:41:54.091Z,100923.84
2022-08-08T14:44:21.174Z,100932.31
2022-08-08T14:47:02.281Z,100931.31
2022-08-08T14:50:02.559Z,100940.06
2022-08-08T14:52:29.167Z,100944.16
2022-08-08T14:54:59.409Z,100945.59
2022-08-08T14:58:02.520Z,100951.75
2022-08-08T15:00:19.724Z,100949.91
2022-08-08T15:02:58.539Z,100946.47
2022-08-08T15:05:52.728Z,100953.19
2022-08-08T15:08:35.592Z,100953.19
2022-08-08T15:11:20.483Z,100954.34
2022-08-08T15:14:03.086Z,100959.63
2022-08-08T15:16:34.520Z,100955.63
2022-08-08T15:19:05.118Z,100963.91
2022-08-08T15:21:42.408Z,100963.91
2022-08-08T15:24:16.009Z,100966.25
2022-08-08T15:26:52.227Z,100964.84
2022-08-08T15:29:25.543Z,100972.06
2022-08-08T15:32:17.569Z,100973.03
2022-08-08T15:34:47.045Z,100970.78
2022-08-08T15:37:19.223Z,100970.28
2022-08-08T15:39:49.817Z,100978.75
2022-08-08T15:42:32.182Z,100981.00
2022-08-08T15:45:04.184Z,100989.09
2022-08-08T15:47:34.661Z,100987.16
2022-08-08T15:50:04.672Z,100981.81
2022-08-08T15:52:39.343Z,100991.22
2022-08-08T15:55:12.815Z,100991.84
2022-08-08T15:57:43.177Z,100989.22
2022-08-08T16:00:27.485Z,100993.47
2022-08-08T16:02:59.643Z,100977.25
2022-08-08T16:05:35.224Z,100984.06
2022-08-08T16:08:12.283Z,100978.38
2022-08-08T16:13:28.722Z,100984.78
2022-08-08T16:13:44.993Z,100980.63
2022-08-08T16:16:17.882Z,100985.84
2022-08-08T16:18:56.805Z,100981.75
2022-08-08T16:21:31.665Z,100970.38
2022-08-08T16:24:04.507Z,100976.50
2022-08-08T16:26:36.939Z,100986.19
2022-08-08T16:29:16.322Z,100989.59
2022-08-08T16:31:49.638Z,100982.22
2022-08-08T16:34:24.872Z,100982.22
2022-08-08T16:36:55.440Z,100981.22
2022-08-08T16:39:59.943Z,100978.84
2022-08-08T16:42:18.434Z,100977.22
2022-08-08T16:44:55.080Z,100977.34
2022-08-08T16:47:39.815Z,100974.88
2022-08-08T16:50:16.087Z,100976.31
2022-08-08T16:55:05.804Z,100962.34
2022-08-08T16:55:55.452Z,100970.72
2022-08-08T16:58:34.412Z,100972.66
2022-08-08T17:01:11.041Z,100970.72
2022-08-08T17:04:00.994Z,100967.97
2022-08-08T17:06:36.167Z,100966.00
2022-08-08T17:09:15.236Z,100955.13
2022-08-08T17:11:50.870Z,100954.28
2022-08-08T17:14:33.086Z,100941.44
2022-08-08T17:17:41.352Z,100938.38
2022-08-08T17:19:59.806Z,100928.19
2022-08-08T17:22:38.819Z,100932.94
2022-08-08T17:25:12.432Z,100923.69
2022-08-08T17:27:47.506Z,100929.28
2022-08-08T17:30:27.385Z,100921.34
2022-08-08T17:34:53.564Z,100920.53
2022-08-08T17:35:56.173Z,100916.44
2022-08-08T17:38:40.468Z,100910.09
2022-08-08T17:41:12.260Z,100907.44
2022-08-08T17:44:01.660Z,100904.69
2022-08-08T17:46:42.857Z,100903.06
2022-08-08T17:49:16.563Z,100892.03
2022-08-08T17:51:55.692Z,100892.03
2022-08-08T17:54:28.981Z,100893.97
2022-08-08T17:56:59.605Z,100888.97
2022-08-08T17:59:30.369Z,100885.94
2022-08-08T18:02:16.085Z,100876.31
2022-08-08T18:04:49.462Z,100870.63
2022-08-08T18:08:04.064Z,100870.44
2022-08-08T18:10:11.864Z,100871.63
2022-08-08T18:12:44.389Z,100872.25
2022-08-08T18:15:17.147Z,100865.09
2022-08-08T18:18:04.959Z,100874.69
2022-08-08T18:20:54.546Z,100861.34
2022-08-08T18:23:25.418Z,100872.44
2022-08-08T18:25:55.547Z,100865.00
2022-08-08T18:28:34.865Z,100856.63
2022-08-08T18:31:22.296Z,100858.41
2022-08-08T18:34:25.214Z,100862.25
2022-08-08T18:36:44.619Z,100863.66
2022-08-08T18:39:16.431Z,100857.13
2022-08-08T18:42:02.978Z,100855.00
2022-08-08T18:44:36.072Z,100846.53
2022-08-08T18:47:06.974Z,100846.13
2022-08-08T18:49:54.732Z,100829.59
2022-08-08T18:52:28.111Z,100838.28
2022-08-08T18:55:10.209Z,100836.53
2022-08-08T18:57:44.787Z,100836.22
2022-08-08T19:00:21.555Z,100836.34
2022-08-08T19:02:55.732Z,100840.22
2022-08-08T19:05:34.437Z,100831.03
2022-08-08T19:08:24.752Z,100840.81
2022-08-08T19:11:01.701Z,100835.59
2022-08-08T19:13:52.494Z,100835.41
2022-08-08T19:16:31.806Z,100834.47
2022-08-08T19:19:03.845Z,100829.63
2022-08-08T19:21:49.476Z,100834.28
2022-08-08T19:24:40.631Z,100827.97
2022-08-08T19:27:12.108Z,100821.81
2022-08-08T19:29:46.232Z,100826.97
2022-08-08T19:32:22.876Z,100817.06
2022-08-08T19:34:55.068Z,100818.00
2022-08-08T19:37:43.421Z,100816.06
2022-08-08T19:40:16.618Z,100807.59
2022-08-08T19:42:51.529Z,100811.47
2022-08-08T19:45:58.305Z,100804.34
2022-08-08T19:48:28.984Z,100795.56
2022-08-08T19:51:02.128Z,100792.81
2022-08-08T19:53:53.328Z,100787.63
2022-08-08T19:56:25.879Z,100781.09
2022-08-08T19:59:12.442Z,100779.47
2022-08-08T20:02:02.216Z,100774.78
2022-08-08T20:04:34.362Z,100784.19
2022-08-08T20:08:39.459Z,100773.16
2022-08-08T20:09:57.176Z,100761.03
2022-08-08T20:12:32.389Z,100754.56
2022-08-08T20:15:16.760Z,100762.22
2022-08-08T20:17:49.806Z,100759.25
2022-08-08T20:20:22.218Z,100753.13
2022-08-08T20:22:56.303Z,100750.81
2022-08-08T20:25:29.780Z,100738.66
2022-08-08T20:28:07.093Z,100737.34
2022-08-08T20:30:56.072Z,100737.66
2022-08-08T20:34:27.359Z,100744.00
2022-08-08T20:36:22.160Z,100747.03
2022-08-08T20:38:53.119Z,100745.13
2022-08-08T20:41:23.209Z,100743.78
2022-08-08T20:43:54.313Z,100749.78
2022-08-08T20:46:29.408Z,100740.22
2022-08-08T20:48:59.895Z,100741.34
2022-08-08T20:51:31.607Z,100745.22
2022-08-08T20:54:13.887Z,100754.59
2022-08-08T20:57:04.710Z,100748.41
2022-08-08T20:59:41.631Z,100752.47
2022-08-08T21:02:12.745Z,100757.97
2022-08-08T21:04:50.269Z,100756.34
2022-08-08T21:07:47.164Z,100760.09
2022-08-08T21:10:13.115Z,100753.59
2022-08-08T21:12:44.532Z,100760.72
2022-08-08T21:16:04.119Z,100747.78
2022-08-08T21:18:07.054Z,100760.44
2022-08-08T21:20:37.764Z,100755.44
2022-08-08T21:23:09.926Z,100751.06
2022-08-08T21:25:43.732Z,100744.41
2022-08-08T21:28:15.612Z,100747.47
2022-08-08T21:30:49.621Z,100764.31
2022-08-08T21:33:22.800Z,100749.09
2022-08-08T21:36:17.271Z,100756.22
2022-08-08T21:38:43.706Z,100753.59
2022-08-08T21:41:28.753Z,100754.59
2022-08-08T21:44:06.117Z,100756.56
2022-08-08T21:48:01.948Z,100756.84
2022-08-08T21:49:26.948Z,100756.34
2022-08-08T21:54:23.406Z,100765.72
2022-08-08T21:55:01.847Z,100762.69
2022-08-08T21:57:42.029Z,100755.53
2022-08-08T22:00:14.975Z,100764.31
2022-08-08T22:02:56.126Z,100773.38
2022-08-08T22:05:26.456Z,100765.09
2022-08-08T22:08:00.334Z,100767.88
2022-08-08T22:10:32.616Z,100772.84
2022-08-08T22:13:19.020Z,100777.06
2022-08-08T22:15:59.238Z,100782.88
2022-08-08T22:18:33.308Z,100782.06
2022-08-08T22:21:14.216Z,100783.78
2022-08-08T22:23:53.754Z,100784.69
2022-08-08T22:26:29.598Z,100790.50
2022-08-08T22:29:57.263Z,100791.34
2022-08-08T22:31:58.112Z,100790.50
2022-08-08T22:34:39.579Z,100798.47
2022-08-08T22:37:14.802Z,100790.91
2022-08-08T22:40:00.832Z,100795.09
2022-08-08T22:42:34.324Z,100795.09
2022-08-08T22:45:12.983Z,100792.34
2022-08-08T22:47:49.493Z,100802.53
2022-08-08T22:50:27.022Z,100797.84
2022-08-08T22:54:32.566Z,100797.97
